sensor_id;sensor_type;location;lat;lon;timestamp;P1;durP1;ratioP1;P2;durP2;ratioP2
20982;SDS011;10650;51.528;6.748;2022-12-20T00:01:46;7.80;;;4.55;;
20982;SDS011;10650;51.528;6.748;2022-12-20T00:07:45;9.15;;;4.50;;
20982;SDS011;10650;51.528;6.748;2022-12-20T00:13:18;7.63;;;3.80;;
20982;SDS011;10650;51.528;6.748;2022-12-20T00:16:01;8.93;;;3.83;;
20982;SDS011;10650;51.528;6.748;2022-12-20T00:18:35;7.43;;;3.92;;
20982;SDS011;10650;51.528;6.748;2022-12-20T00:21:05;7.13;;;3.55;;
20982;SDS011;10650;51.528;6.748;2022-12-20T00:23:35;10.57;;;4.00;;
20982;SDS011;10650;51.528;6.748;2022-12-20T00:26:22;4.37;;;2.83;;
20982;SDS011;10650;51.528;6.748;2022-12-20T00:29:05;4.40;;;3.25;;
20982;SDS011;10650;51.528;6.748;2022-12-20T00:31:36;5.28;;;3.30;;
20982;SDS011;10650;51.528;6.748;2022-12-20T00:34:07;4.50;;;3.15;;
20982;SDS011;10650;51.528;6.748;2022-12-20T00:36:38;3.90;;;3.20;;
20982;SDS011;10650;51.528;6.748;2022-12-20T00:39:06;5.15;;;3.03;;
20982;SDS011;10650;51.528;6.748;2022-12-20T00:41:36;3.17;;;2.88;;
20982;SDS011;10650;51.528;6.748;2022-12-20T00:44:04;5.40;;;3.10;;
20982;SDS011;10650;51.528;6.748;2022-12-20T00:46:41;3.38;;;3.00;;
20982;SDS011;10650;51.528;6.748;2022-12-20T00:49:14;4.85;;;3.10;;
20982;SDS011;10650;51.528;6.748;2022-12-20T00:51:44;7.15;;;3.30;;
20982;SDS011;10650;51.528;6.748;2022-12-20T00:54:13;6.68;;;3.38;;
20982;SDS011;10650;51.528;6.748;2022-12-20T00:56:50;9.48;;;3.63;;
20982;SDS011;10650;51.528;6.748;2022-12-20T00:59:21;6.47;;;3.70;;
20982;SDS011;10650;51.528;6.748;2022-12-20T01:01:52;7.93;;;3.30;;
20982;SDS011;10650;51.528;6.748;2022-12-20T01:04:33;6.05;;;3.20;;
20982;SDS011;10650;51.528;6.748;2022-12-20T01:07:24;5.90;;;3.10;;
20982;SDS011;10650;51.528;6.748;2022-12-20T01:10:05;4.55;;;2.75;;
20982;SDS011;10650;51.528;6.748;2022-12-20T01:18:18;3.22;;;2.90;;
20982;SDS011;10650;51.528;6.748;2022-12-20T01:19:31;6.97;;;3.63;;
20982;SDS011;10650;51.528;6.748;2022-12-20T01:22:22;7.93;;;3.85;;
20982;SDS011;10650;51.528;6.748;2022-12-20T01:25:28;8.88;;;4.47;;
20982;SDS011;10650;51.528;6.748;2022-12-20T01:28:05;7.63;;;3.97;;
20982;SDS011;10650;51.528;6.748;2022-12-20T01:30:50;5.55;;;3.30;;
20982;SDS011;10650;51.528;6.748;2022-12-20T01:33:57;5.68;;;3.20;;
20982;SDS011;10650;51.528;6.748;2022-12-20T01:37:07;8.68;;;3.95;;
20982;SDS011;10650;51.528;6.748;2022-12-20T01:40:14;8.43;;;3.90;;
20982;SDS011;10650;51.528;6.748;2022-12-20T01:43:15;11.40;;;4.57;;
20982;SDS011;10650;51.528;6.748;2022-12-20T01:49:06;7.63;;;3.40;;
20982;SDS011;10650;51.528;6.748;2022-12-20T01:56:38;7.40;;;3.50;;
20982;SDS011;10650;51.528;6.748;2022-12-20T01:59:26;11.23;;;3.97;;
20982;SDS011;10650;51.528;6.748;2022-12-20T02:02:23;10.43;;;3.78;;
20982;SDS011;10650;51.528;6.748;2022-12-20T02:05:13;8.80;;;3.53;;
20982;SDS011;10650;51.528;6.748;2022-12-20T02:07:44;8.40;;;3.85;;
20982;SDS011;10650;51.528;6.748;2022-12-20T02:11:13;8.23;;;3.72;;
20982;SDS011;10650;51.528;6.748;2022-12-20T02:13:54;7.10;;;3.92;;
20982;SDS011;10650;51.528;6.748;2022-12-20T02:17:07;7.47;;;4.20;;
20982;SDS011;10650;51.528;6.748;2022-12-20T02:20:09;6.53;;;4.18;;
20982;SDS011;10650;51.528;6.748;2022-12-20T02:23:31;6.05;;;4.18;;
20982;SDS011;10650;51.528;6.748;2022-12-20T02:26:23;7.45;;;4.50;;
20982;SDS011;10650;51.528;6.748;2022-12-20T02:33:07;7.15;;;3.97;;
20982;SDS011;10650;51.528;6.748;2022-12-20T02:35:40;7.95;;;4.45;;
20982;SDS011;10650;51.528;6.748;2022-12-20T03:50:33;6.03;;;4.30;;
20982;SDS011;10650;51.528;6.748;2022-12-20T04:05:18;5.97;;;4.28;;
20982;SDS011;10650;51.528;6.748;2022-12-20T05:11:07;10.98;;;7.38;;
20982;SDS011;10650;51.528;6.748;2022-12-20T05:12:58;10.43;;;7.43;;
20982;SDS011;10650;51.528;6.748;2022-12-20T09:13:42;4.82;;;3.80;;
20982;SDS011;10650;51.528;6.748;2022-12-20T09:16:12;5.38;;;3.65;;
20982;SDS011;10650;51.528;6.748;2022-12-20T09:18:46;6.53;;;4.35;;
20982;SDS011;10650;51.528;6.748;2022-12-20T09:21:15;10.73;;;4.73;;
20982;SDS011;10650;51.528;6.748;2022-12-20T09:23:43;9.07;;;5.40;;
20982;SDS011;10650;51.528;6.748;2022-12-20T09:26:13;7.65;;;4.70;;
20982;SDS011;10650;51.528;6.748;2022-12-20T09:28:43;7.28;;;4.70;;
20982;SDS011;10650;51.528;6.748;2022-12-20T09:31:13;7.20;;;4.60;;
20982;SDS011;10650;51.528;6.748;2022-12-20T09:33:42;5.60;;;4.13;;
20982;SDS011;10650;51.528;6.748;2022-12-20T09:36:11;8.68;;;5.88;;
20982;SDS011;10650;51.528;6.748;2022-12-20T09:38:40;7.15;;;4.50;;
20982;SDS011;10650;51.528;6.748;2022-12-20T09:41:15;5.75;;;4.00;;
20982;SDS011;10650;51.528;6.748;2022-12-20T09:43:50;6.07;;;4.07;;
20982;SDS011;10650;51.528;6.748;2022-12-20T09:46:19;5.57;;;4.28;;
20982;SDS011;10650;51.528;6.748;2022-12-20T09:48:48;6.43;;;4.63;;
20982;SDS011;10650;51.528;6.748;2022-12-20T09:51:28;10.20;;;5.40;;
20982;SDS011;10650;51.528;6.748;2022-12-20T09:54:07;9.18;;;5.82;;
20982;SDS011;10650;51.528;6.748;2022-12-20T09:56:46;9.98;;;5.30;;
20982;SDS011;10650;51.528;6.748;2022-12-20T09:59:22;7.20;;;5.15;;
20982;SDS011;10650;51.528;6.748;2022-12-20T10:01:50;6.43;;;4.78;;
20982;SDS011;10650;51.528;6.748;2022-12-20T10:04:20;6.57;;;4.80;;
20982;SDS011;10650;51.528;6.748;2022-12-20T10:06:53;6.47;;;4.50;;
20982;SDS011;10650;51.528;6.748;2022-12-20T10:09:43;7.00;;;4.50;;
20982;SDS011;10650;51.528;6.748;2022-12-20T10:12:28;6.45;;;4.10;;
20982;SDS011;10650;51.528;6.748;2022-12-20T10:15:16;4.95;;;3.80;;
20982;SDS011;10650;51.528;6.748;2022-12-20T10:17:53;7.05;;;4.10;;
20982;SDS011;10650;51.528;6.748;2022-12-20T10:20:33;5.88;;;4.38;;
20982;SDS011;10650;51.528;6.748;2022-12-20T10:23:13;5.45;;;4.35;;
20982;SDS011;10650;51.528;6.748;2022-12-20T10:25:57;6.38;;;4.22;;
20982;SDS011;10650;51.528;6.748;2022-12-20T10:28:29;7.47;;;4.32;;
20982;SDS011;10650;51.528;6.748;2022-12-20T10:31:00;6.28;;;4.35;;
20982;SDS011;10650;51.528;6.748;2022-12-20T10:33:29;7.15;;;4.15;;
20982;SDS011;10650;51.528;6.748;2022-12-20T10:38:46;8.00;;;5.00;;
20982;SDS011;10650;51.528;6.748;2022-12-20T10:41:16;7.13;;;4.47;;
20982;SDS011;10650;51.528;6.748;2022-12-20T10:43:50;8.20;;;4.80;;
20982;SDS011;10650;51.528;6.748;2022-12-20T10:46:23;7.38;;;4.63;;
20982;SDS011;10650;51.528;6.748;2022-12-20T10:51:53;6.15;;;4.20;;
20982;SDS011;10650;51.528;6.748;2022-12-20T10:54:23;6.45;;;4.07;;
20982;SDS011;10650;51.528;6.748;2022-12-20T10:56:57;6.57;;;3.60;;
20982;SDS011;10650;51.528;6.748;2022-12-20T10:59:31;7.07;;;3.60;;
20982;SDS011;10650;51.528;6.748;2022-12-20T11:02:19;6.22;;;3.97;;
20982;SDS011;10650;51.528;6.748;2022-12-20T11:05:00;4.88;;;3.83;;
20982;SDS011;10650;51.528;6.748;2022-12-20T11:07:35;6.97;;;4.22;;
20982;SDS011;10650;51.528;6.748;2022-12-20T11:10:16;8.07;;;4.20;;
20982;SDS011;10650;51.528;6.748;2022-12-20T11:12:51;6.50;;;4.05;;
20982;SDS011;10650;51.528;6.748;2022-12-20T11:15:21;7.30;;;4.22;;
20982;SDS011;10650;51.528;6.748;2022-12-20T11:18:03;5.85;;;4.35;;
20982;SDS011;10650;51.528;6.748;2022-12-20T11:20:34;6.95;;;4.22;;
20982;SDS011;10650;51.528;6.748;2022-12-20T11:23:12;8.45;;;5.07;;
20982;SDS011;10650;51.528;6.748;2022-12-20T11:25:55;7.72;;;4.70;;
20982;SDS011;10650;51.528;6.748;2022-12-20T11:28:48;7.25;;;4.88;;
20982;SDS011;10650;51.528;6.748;2022-12-20T11:32:53;8.10;;;4.40;;
20982;SDS011;10650;51.528;6.748;2022-12-20T11:34:47;8.25;;;4.72;;
20982;SDS011;10650;51.528;6.748;2022-12-20T11:37:27;8.52;;;4.85;;
20982;SDS011;10650;51.528;6.748;2022-12-20T11:40:41;8.48;;;5.05;;
20982;SDS011;10650;51.528;6.748;2022-12-20T11:43:16;9.73;;;6.93;;
20982;SDS011;10650;51.528;6.748;2022-12-20T11:46:00;9.15;;;5.70;;
20982;SDS011;10650;51.528;6.748;2022-12-20T11:51:40;9.13;;;5.57;;
20982;SDS011;10650;51.528;6.748;2022-12-20T11:54:13;8.88;;;5.80;;
20982;SDS011;10650;51.528;6.748;2022-12-20T11:56:49;7.78;;;5.22;;
20982;SDS011;10650;51.528;6.748;2022-12-20T11:59:19;7.45;;;5.60;;
20982;SDS011;10650;51.528;6.748;2022-12-20T12:01:59;8.70;;;6.05;;
20982;SDS011;10650;51.528;6.748;2022-12-20T12:04:32;8.75;;;6.05;;
20982;SDS011;10650;51.528;6.748;2022-12-20T12:07:06;10.07;;;5.95;;
20982;SDS011;10650;51.528;6.748;2022-12-20T12:09:39;9.07;;;5.30;;
20982;SDS011;10650;51.528;6.748;2022-12-20T12:12:15;8.52;;;5.57;;
20982;SDS011;10650;51.528;6.748;2022-12-20T12:14:49;8.48;;;5.00;;
20982;SDS011;10650;51.528;6.748;2022-12-20T12:17:24;7.25;;;5.25;;
20982;SDS011;10650;51.528;6.748;2022-12-20T12:20:06;9.40;;;5.53;;
20982;SDS011;10650;51.528;6.748;2022-12-20T12:22:48;8.82;;;5.15;;
20982;SDS011;10650;51.528;6.748;2022-12-20T12:25:21;8.70;;;4.53;;
20982;SDS011;10650;51.528;6.748;2022-12-20T12:27:49;8.25;;;5.50;;
20982;SDS011;10650;51.528;6.748;2022-12-20T12:30:19;7.38;;;5.07;;
20982;SDS011;10650;51.528;6.748;2022-12-20T12:32:49;9.20;;;6.20;;
20982;SDS011;10650;51.528;6.748;2022-12-20T12:35:24;10.98;;;6.50;;
20982;SDS011;10650;51.528;6.748;2022-12-20T12:38:20;9.85;;;6.25;;
20982;SDS011;10650;51.528;6.748;2022-12-20T12:44:21;8.43;;;4.75;;
20982;SDS011;10650;51.528;6.748;2022-12-20T12:47:01;8.60;;;5.25;;
20982;SDS011;10650;51.528;6.748;2022-12-20T12:49:38;8.02;;;5.10;;
20982;SDS011;10650;51.528;6.748;2022-12-20T12:52:15;6.43;;;5.20;;
20982;SDS011;10650;51.528;6.748;2022-12-20T12:55:02;12.60;;;6.25;;
20982;SDS011;10650;51.528;6.748;2022-12-20T12:57:54;10.95;;;6.55;;
20982;SDS011;10650;51.528;6.748;2022-12-20T13:03:24;12.82;;;9.20;;
20982;SDS011;10650;51.528;6.748;2022-12-20T13:09:18;12.93;;;7.93;;
20982;SDS011;10650;51.528;6.748;2022-12-20T13:11:50;8.15;;;7.30;;
20982;SDS011;10650;51.528;6.748;2022-12-20T13:14:47;11.98;;;7.80;;
20982;SDS011;10650;51.528;6.748;2022-12-20T13:17:38;13.07;;;8.35;;
20982;SDS011;10650;51.528;6.748;2022-12-20T13:20:15;11.88;;;7.60;;
20982;SDS011;10650;51.528;6.748;2022-12-20T13:23:04;9.85;;;8.30;;
20982;SDS011;10650;51.528;6.748;2022-12-20T13:25:40;10.63;;;7.20;;
20982;SDS011;10650;51.528;6.748;2022-12-20T13:31:30;12.90;;;7.88;;
20982;SDS011;10650;51.528;6.748;2022-12-20T13:34:00;16.65;;;9.00;;
20982;SDS011;10650;51.528;6.748;2022-12-20T13:36:30;12.75;;;7.72;;
20982;SDS011;10650;51.528;6.748;2022-12-20T13:39:01;11.75;;;7.03;;
20982;SDS011;10650;51.528;6.748;2022-12-20T13:41:39;10.65;;;7.05;;
20982;SDS011;10650;51.528;6.748;2022-12-20T13:44:30;10.15;;;7.75;;
20982;SDS011;10650;51.528;6.748;2022-12-20T13:47:05;11.55;;;7.65;;
20982;SDS011;10650;51.528;6.748;2022-12-20T13:49:49;12.25;;;8.10;;
20982;SDS011;10650;51.528;6.748;2022-12-20T13:52:20;14.50;;;8.13;;
20982;SDS011;10650;51.528;6.748;2022-12-20T13:54:52;9.27;;;5.60;;
20982;SDS011;10650;51.528;6.748;2022-12-20T13:57:26;10.57;;;5.90;;
20982;SDS011;10650;51.528;6.748;2022-12-20T14:00:02;17.42;;;8.48;;
20982;SDS011;10650;51.528;6.748;2022-12-20T14:02:34;10.13;;;6.38;;
20982;SDS011;10650;51.528;6.748;2022-12-20T14:05:12;13.38;;;10.50;;
20982;SDS011;10650;51.528;6.748;2022-12-20T14:07:44;17.92;;;11.73;;
20982;SDS011;10650;51.528;6.748;2022-12-20T14:10:15;14.70;;;8.70;;
20982;SDS011;10650;51.528;6.748;2022-12-20T14:12:46;15.35;;;8.45;;
20982;SDS011;10650;51.528;6.748;2022-12-20T14:15:28;13.23;;;8.60;;
20982;SDS011;10650;51.528;6.748;2022-12-20T14:18:03;20.17;;;13.80;;
20982;SDS011;10650;51.528;6.748;2022-12-20T14:20:35;25.02;;;22.35;;
20982;SDS011;10650;51.528;6.748;2022-12-20T14:23:04;28.20;;;25.30;;
20982;SDS011;10650;51.528;6.748;2022-12-20T14:25:39;31.95;;;28.67;;
20982;SDS011;10650;51.528;6.748;2022-12-20T14:28:27;46.08;;;41.50;;
20982;SDS011;10650;51.528;6.748;2022-12-20T14:30:59;42.22;;;37.83;;
20982;SDS011;10650;51.528;6.748;2022-12-20T14:33:29;34.42;;;30.42;;
20982;SDS011;10650;51.528;6.748;2022-12-20T14:36:08;34.15;;;29.23;;
20982;SDS011;10650;51.528;6.748;2022-12-20T14:38:44;48.40;;;40.80;;
20982;SDS011;10650;51.528;6.748;2022-12-20T14:41:30;40.05;;;33.53;;
20982;SDS011;10650;51.528;6.748;2022-12-20T14:44:01;42.80;;;36.17;;
20982;SDS011;10650;51.528;6.748;2022-12-20T14:46:41;46.08;;;37.03;;
20982;SDS011;10650;51.528;6.748;2022-12-20T14:49:17;53.15;;;41.15;;
20982;SDS011;10650;51.528;6.748;2022-12-20T14:51:52;27.77;;;21.25;;
20982;SDS011;10650;51.528;6.748;2022-12-20T14:54:31;49.10;;;35.08;;
20982;SDS011;10650;51.528;6.748;2022-12-20T14:57:21;36.72;;;25.50;;
20982;SDS011;10650;51.528;6.748;2022-12-20T15:00:01;30.33;;;19.40;;
20982;SDS011;10650;51.528;6.748;2022-12-20T15:02:51;33.63;;;19.95;;
20982;SDS011;10650;51.528;6.748;2022-12-20T15:08:18;201.13;;;149.23;;
20982;SDS011;10650;51.528;6.748;2022-12-20T15:10:49;82.13;;;55.50;;
20982;SDS011;10650;51.528;6.748;2022-12-20T15:13:21;34.13;;;22.88;;
20982;SDS011;10650;51.528;6.748;2022-12-20T15:15:51;30.05;;;17.38;;
20982;SDS011;10650;51.528;6.748;2022-12-20T15:18:20;23.00;;;15.27;;
20982;SDS011;10650;51.528;6.748;2022-12-20T15:20:51;13.02;;;8.00;;
20982;SDS011;10650;51.528;6.748;2022-12-20T15:23:27;28.70;;;23.42;;
20982;SDS011;10650;51.528;6.748;2022-12-20T15:25:55;21.70;;;13.68;;
20982;SDS011;10650;51.528;6.748;2022-12-20T15:28:24;22.73;;;15.50;;
20982;SDS011;10650;51.528;6.748;2022-12-20T15:30:53;21.02;;;11.73;;
20982;SDS011;10650;51.528;6.748;2022-12-20T15:33:24;25.13;;;14.13;;
20982;SDS011;10650;51.528;6.748;2022-12-20T15:35:54;24.45;;;14.40;;
20982;SDS011;10650;51.528;6.748;2022-12-20T15:38:23;21.67;;;10.45;;
20982;SDS011;10650;51.528;6.748;2022-12-20T15:41:15;21.73;;;10.40;;
20982;SDS011;10650;51.528;6.748;2022-12-20T15:43:46;21.25;;;10.60;;
20982;SDS011;10650;51.528;6.748;2022-12-20T15:46:16;25.63;;;13.43;;
20982;SDS011;10650;51.528;6.748;2022-12-20T15:48:46;31.48;;;17.83;;
20982;SDS011;10650;51.528;6.748;2022-12-20T15:51:20;41.38;;;25.25;;
20982;SDS011;10650;51.528;6.748;2022-12-20T15:53:53;30.15;;;19.25;;
20982;SDS011;10650;51.528;6.748;2022-12-20T15:56:22;22.73;;;14.70;;
20982;SDS011;10650;51.528;6.748;2022-12-20T15:58:51;23.63;;;14.98;;
20982;SDS011;10650;51.528;6.748;2022-12-20T16:01:21;18.08;;;12.10;;
20982;SDS011;10650;51.528;6.748;2022-12-20T16:03:54;27.58;;;19.73;;
20982;SDS011;10650;51.528;6.748;2022-12-20T16:06:22;17.60;;;12.85;;
20982;SDS011;10650;51.528;6.748;2022-12-20T16:08:50;20.42;;;14.63;;
20982;SDS011;10650;51.528;6.748;2022-12-20T16:11:20;23.08;;;15.77;;
20982;SDS011;10650;51.528;6.748;2022-12-20T16:13:53;17.45;;;13.07;;
20982;SDS011;10650;51.528;6.748;2022-12-20T16:16:22;19.30;;;13.18;;
20982;SDS011;10650;51.528;6.748;2022-12-20T16:18:51;20.52;;;14.90;;
20982;SDS011;10650;51.528;6.748;2022-12-20T16:21:21;21.33;;;14.25;;
20982;SDS011;10650;51.528;6.748;2022-12-20T16:23:51;14.77;;;10.07;;
20982;SDS011;10650;51.528;6.748;2022-12-20T16:26:21;15.43;;;11.85;;
20982;SDS011;10650;51.528;6.748;2022-12-20T16:28:51;12.70;;;8.20;;
20982;SDS011;10650;51.528;6.748;2022-12-20T16:31:21;17.35;;;14.60;;
20982;SDS011;10650;51.528;6.748;2022-12-20T16:33:51;9.73;;;8.05;;
20982;SDS011;10650;51.528;6.748;2022-12-20T16:36:23;13.88;;;9.05;;
20982;SDS011;10650;51.528;6.748;2022-12-20T16:38:52;28.40;;;22.35;;
20982;SDS011;10650;51.528;6.748;2022-12-20T16:41:21;34.50;;;29.65;;
20982;SDS011;10650;51.528;6.748;2022-12-20T16:43:53;27.52;;;20.98;;
20982;SDS011;10650;51.528;6.748;2022-12-20T16:46:22;24.25;;;17.50;;
20982;SDS011;10650;51.528;6.748;2022-12-20T16:48:52;27.73;;;16.77;;
20982;SDS011;10650;51.528;6.748;2022-12-20T16:51:24;25.02;;;16.75;;
20982;SDS011;10650;51.528;6.748;2022-12-20T16:53:54;34.28;;;20.30;;
20982;SDS011;10650;51.528;6.748;2022-12-20T16:56:43;36.30;;;20.80;;
20982;SDS011;10650;51.528;6.748;2022-12-20T16:59:13;32.85;;;19.85;;
20982;SDS011;10650;51.528;6.748;2022-12-20T17:01:47;29.55;;;16.10;;
20982;SDS011;10650;51.528;6.748;2022-12-20T17:04:17;29.35;;;16.50;;
20982;SDS011;10650;51.528;6.748;2022-12-20T17:06:47;21.63;;;13.45;;
20982;SDS011;10650;51.528;6.748;2022-12-20T17:09:15;23.13;;;11.70;;
20982;SDS011;10650;51.528;6.748;2022-12-20T17:12:04;24.33;;;17.55;;
20982;SDS011;10650;51.528;6.748;2022-12-20T17:14:36;20.45;;;12.77;;
20982;SDS011;10650;51.528;6.748;2022-12-20T17:17:04;23.42;;;12.45;;
20982;SDS011;10650;51.528;6.748;2022-12-20T17:19:33;27.67;;;19.90;;
20982;SDS011;10650;51.528;6.748;2022-12-20T17:22:02;22.20;;;14.77;;
20982;SDS011;10650;51.528;6.748;2022-12-20T17:24:49;24.50;;;15.95;;
20982;SDS011;10650;51.528;6.748;2022-12-20T17:27:17;29.75;;;22.25;;
20982;SDS011;10650;51.528;6.748;2022-12-20T17:29:45;38.22;;;33.75;;
20982;SDS011;10650;51.528;6.748;2022-12-20T17:32:17;30.35;;;23.98;;
20982;SDS011;10650;51.528;6.748;2022-12-20T17:34:47;22.65;;;15.38;;
20982;SDS011;10650;51.528;6.748;2022-12-20T17:37:17;23.02;;;15.13;;
20982;SDS011;10650;51.528;6.748;2022-12-20T17:39:46;24.90;;;17.90;;
20982;SDS011;10650;51.528;6.748;2022-12-20T17:42:14;16.00;;;11.23;;
20982;SDS011;10650;51.528;6.748;2022-12-20T17:44:43;14.20;;;10.68;;
20982;SDS011;10650;51.528;6.748;2022-12-20T17:47:12;21.27;;;14.48;;
20982;SDS011;10650;51.528;6.748;2022-12-20T17:49:42;23.80;;;18.70;;
20982;SDS011;10650;51.528;6.748;2022-12-20T17:52:11;24.30;;;19.30;;
20982;SDS011;10650;51.528;6.748;2022-12-20T17:54:42;21.70;;;15.25;;
20982;SDS011;10650;51.528;6.748;2022-12-20T17:57:11;14.27;;;9.98;;
20982;SDS011;10650;51.528;6.748;2022-12-20T17:59:41;13.20;;;10.32;;
20982;SDS011;10650;51.528;6.748;2022-12-20T18:02:17;15.55;;;10.35;;
20982;SDS011;10650;51.528;6.748;2022-12-20T18:04:47;12.95;;;10.45;;
20982;SDS011;10650;51.528;6.748;2022-12-20T18:07:16;12.77;;;8.93;;
20982;SDS011;10650;51.528;6.748;2022-12-20T18:09:46;13.98;;;7.72;;
20982;SDS011;10650;51.528;6.748;2022-12-20T18:12:15;12.23;;;8.10;;
20982;SDS011;10650;51.528;6.748;2022-12-20T18:14:43;11.70;;;8.07;;
20982;SDS011;10650;51.528;6.748;2022-12-20T18:17:11;24.15;;;15.18;;
20982;SDS011;10650;51.528;6.748;2022-12-20T18:19:40;15.05;;;9.88;;
20982;SDS011;10650;51.528;6.748;2022-12-20T18:22:09;23.05;;;14.52;;
20982;SDS011;10650;51.528;6.748;2022-12-20T18:24:37;14.93;;;10.45;;
20982;SDS011;10650;51.528;6.748;2022-12-20T18:27:07;16.45;;;13.20;;
20982;SDS011;10650;51.528;6.748;2022-12-20T18:29:35;17.27;;;13.07;;
20982;SDS011;10650;51.528;6.748;2022-12-20T18:32:03;20.10;;;13.43;;
20982;SDS011;10650;51.528;6.748;2022-12-20T18:34:32;34.40;;;29.35;;
20982;SDS011;10650;51.528;6.748;2022-12-20T18:37:00;35.20;;;26.80;;
20982;SDS011;10650;51.528;6.748;2022-12-20T18:39:31;37.03;;;25.83;;
20982;SDS011;10650;51.528;6.748;2022-12-20T18:41:59;46.33;;;34.13;;
20982;SDS011;10650;51.528;6.748;2022-12-20T18:44:28;45.22;;;33.47;;
20982;SDS011;10650;51.528;6.748;2022-12-20T18:47:02;26.65;;;19.08;;
20982;SDS011;10650;51.528;6.748;2022-12-20T18:49:31;32.38;;;23.30;;
20982;SDS011;10650;51.528;6.748;2022-12-20T18:51:59;40.80;;;31.45;;
20982;SDS011;10650;51.528;6.748;2022-12-20T18:54:28;41.15;;;28.58;;
20982;SDS011;10650;51.528;6.748;2022-12-20T18:56:57;45.60;;;31.30;;
20982;SDS011;10650;51.528;6.748;2022-12-20T18:59:25;46.00;;;29.73;;
20982;SDS011;10650;51.528;6.748;2022-12-20T19:01:55;55.75;;;39.00;;
20982;SDS011;10650;51.528;6.748;2022-12-20T19:04:23;72.07;;;47.08;;
20982;SDS011;10650;51.528;6.748;2022-12-20T19:06:54;50.17;;;30.08;;
20982;SDS011;10650;51.528;6.748;2022-12-20T19:09:26;60.83;;;39.75;;
20982;SDS011;10650;51.528;6.748;2022-12-20T19:12:02;52.80;;;30.73;;
20982;SDS011;10650;51.528;6.748;2022-12-20T19:14:30;73.10;;;53.17;;
20982;SDS011;10650;51.528;6.748;2022-12-20T19:17:00;28.65;;;21.73;;
20982;SDS011;10650;51.528;6.748;2022-12-20T19:19:32;38.28;;;30.25;;
20982;SDS011;10650;51.528;6.748;2022-12-20T19:22:01;38.17;;;26.63;;
20982;SDS011;10650;51.528;6.748;2022-12-20T19:24:30;39.78;;;28.27;;
20982;SDS011;10650;51.528;6.748;2022-12-20T19:26:58;47.83;;;35.42;;
20982;SDS011;10650;51.528;6.748;2022-12-20T19:29:26;29.30;;;24.60;;
20982;SDS011;10650;51.528;6.748;2022-12-20T19:31:54;36.58;;;28.80;;
20982;SDS011;10650;51.528;6.748;2022-12-20T19:34:23;26.13;;;21.10;;
20982;SDS011;10650;51.528;6.748;2022-12-20T19:36:51;35.33;;;29.65;;
20982;SDS011;10650;51.528;6.748;2022-12-20T19:39:20;21.52;;;16.15;;
20982;SDS011;10650;51.528;6.748;2022-12-20T19:41:49;32.05;;;26.02;;
20982;SDS011;10650;51.528;6.748;2022-12-20T19:44:38;27.52;;;20.02;;
20982;SDS011;10650;51.528;6.748;2022-12-20T19:47:09;19.17;;;12.77;;
20982;SDS011;10650;51.528;6.748;2022-12-20T19:49:40;14.05;;;10.63;;
20982;SDS011;10650;51.528;6.748;2022-12-20T19:52:08;25.70;;;18.25;;
20982;SDS011;10650;51.528;6.748;2022-12-20T19:54:36;14.43;;;10.45;;
20982;SDS011;10650;51.528;6.748;2022-12-20T19:57:05;19.70;;;15.10;;
20982;SDS011;10650;51.528;6.748;2022-12-20T19:59:33;15.50;;;12.35;;
20982;SDS011;10650;51.528;6.748;2022-12-20T20:02:01;15.52;;;12.48;;
20982;SDS011;10650;51.528;6.748;2022-12-20T20:04:29;13.80;;;11.32;;
20982;SDS011;10650;51.528;6.748;2022-12-20T20:06:59;19.88;;;13.93;;
20982;SDS011;10650;51.528;6.748;2022-12-20T20:09:27;23.42;;;15.30;;
20982;SDS011;10650;51.528;6.748;2022-12-20T20:11:55;20.23;;;14.63;;
20982;SDS011;10650;51.528;6.748;2022-12-20T20:14:23;21.58;;;15.60;;
20982;SDS011;10650;51.528;6.748;2022-12-20T20:16:51;20.35;;;13.60;;
20982;SDS011;10650;51.528;6.748;2022-12-20T20:19:19;20.35;;;14.40;;
20982;SDS011;10650;51.528;6.748;2022-12-20T20:21:47;18.73;;;13.32;;
20982;SDS011;10650;51.528;6.748;2022-12-20T20:24:17;19.40;;;14.05;;
20982;SDS011;10650;51.528;6.748;2022-12-20T20:26:46;20.00;;;13.98;;
20982;SDS011;10650;51.528;6.748;2022-12-20T20:29:14;17.52;;;14.00;;
20982;SDS011;10650;51.528;6.748;2022-12-20T20:31:44;23.60;;;16.02;;
20982;SDS011;10650;51.528;6.748;2022-12-20T20:34:14;22.00;;;16.15;;
20982;SDS011;10650;51.528;6.748;2022-12-20T20:36:42;19.77;;;15.77;;
20982;SDS011;10650;51.528;6.748;2022-12-20T20:39:12;19.30;;;14.18;;
20982;SDS011;10650;51.528;6.748;2022-12-20T20:41:45;21.10;;;14.57;;
20982;SDS011;10650;51.528;6.748;2022-12-20T20:44:13;21.08;;;15.07;;
20982;SDS011;10650;51.528;6.748;2022-12-20T20:46:42;26.33;;;18.83;;
20982;SDS011;10650;51.528;6.748;2022-12-20T20:49:11;22.33;;;16.73;;
20982;SDS011;10650;51.528;6.748;2022-12-20T20:51:39;25.20;;;18.05;;
20982;SDS011;10650;51.528;6.748;2022-12-20T20:54:07;18.95;;;15.05;;
20982;SDS011;10650;51.528;6.748;2022-12-20T20:56:36;20.23;;;16.60;;
20982;SDS011;10650;51.528;6.748;2022-12-20T20:59:06;19.98;;;16.88;;
20982;SDS011;10650;51.528;6.748;2022-12-20T21:01:42;22.40;;;18.20;;
20982;SDS011;10650;51.528;6.748;2022-12-20T21:04:10;22.92;;;17.25;;
20982;SDS011;10650;51.528;6.748;2022-12-20T21:06:38;20.00;;;16.20;;
20982;SDS011;10650;51.528;6.748;2022-12-20T21:09:07;22.17;;;16.65;;
20982;SDS011;10650;51.528;6.748;2022-12-20T21:11:36;17.52;;;14.48;;
20982;SDS011;10650;51.528;6.748;2022-12-20T21:14:07;20.27;;;15.82;;
20982;SDS011;10650;51.528;6.748;2022-12-20T21:16:36;22.73;;;16.70;;
20982;SDS011;10650;51.528;6.748;2022-12-20T21:19:07;22.65;;;16.23;;
20982;SDS011;10650;51.528;6.748;2022-12-20T21:21:36;21.35;;;17.00;;
20982;SDS011;10650;51.528;6.748;2022-12-20T21:24:04;25.88;;;18.70;;
20982;SDS011;10650;51.528;6.748;2022-12-20T21:30:32;29.25;;;20.40;;
20982;SDS011;10650;51.528;6.748;2022-12-20T21:33:13;28.63;;;19.15;;
20982;SDS011;10650;51.528;6.748;2022-12-20T21:35:41;29.70;;;20.10;;
20982;SDS011;10650;51.528;6.748;2022-12-20T21:38:16;22.10;;;17.33;;
20982;SDS011;10650;51.528;6.748;2022-12-20T21:40:45;22.70;;;17.33;;
20982;SDS011;10650;51.528;6.748;2022-12-20T21:43:17;19.97;;;15.80;;
20982;SDS011;10650;51.528;6.748;2022-12-20T21:45:50;24.77;;;18.88;;
20982;SDS011;10650;51.528;6.748;2022-12-20T21:48:18;19.75;;;16.73;;
20982;SDS011;10650;51.528;6.748;2022-12-20T21:50:56;25.48;;;18.50;;
20982;SDS011;10650;51.528;6.748;2022-12-20T21:53:24;24.80;;;18.88;;
20982;SDS011;10650;51.528;6.748;2022-12-20T21:55:53;20.85;;;17.42;;
20982;SDS011;10650;51.528;6.748;2022-12-20T21:58:24;24.85;;;18.92;;
20982;SDS011;10650;51.528;6.748;2022-12-20T22:00:54;24.73;;;18.27;;
20982;SDS011;10650;51.528;6.748;2022-12-20T22:03:23;21.77;;;17.63;;
20982;SDS011;10650;51.528;6.748;2022-12-20T22:05:53;23.23;;;16.95;;
20982;SDS011;10650;51.528;6.748;2022-12-20T22:08:30;25.02;;;20.25;;
20982;SDS011;10650;51.528;6.748;2022-12-20T22:10:59;28.92;;;21.88;;
20982;SDS011;10650;51.528;6.748;2022-12-20T22:13:28;26.90;;;20.88;;
20982;SDS011;10650;51.528;6.748;2022-12-20T22:16:07;22.63;;;17.90;;
20982;SDS011;10650;51.528;6.748;2022-12-20T22:18:36;26.20;;;20.10;;
20982;SDS011;10650;51.528;6.748;2022-12-20T22:21:06;25.95;;;20.33;;
20982;SDS011;10650;51.528;6.748;2022-12-20T22:23:35;29.52;;;22.15;;
20982;SDS011;10650;51.528;6.748;2022-12-20T22:26:06;27.25;;;20.73;;
20982;SDS011;10650;51.528;6.748;2022-12-20T22:28:36;37.42;;;26.17;;
20982;SDS011;10650;51.528;6.748;2022-12-20T22:31:05;25.05;;;20.58;;
20982;SDS011;10650;51.528;6.748;2022-12-20T22:33:36;31.98;;;22.83;;